createdAt,value
2023-05-05T00:00:06.276Z,101189.20
2023-05-05T00:05:29.753Z,101185.80
2023-05-05T00:10:58.757Z,101196.60
2023-05-05T00:16:02.309Z,101204.00
2023-05-05T00:21:06.036Z,101203.20
2023-05-05T00:26:09.652Z,101202.00
2023-05-05T00:32:35.463Z,101198.40
2023-05-05T00:37:39.224Z,101199.60
2023-05-05T00:42:46.216Z,101197.40
2023-05-05T00:47:56.855Z,101197.00
2023-05-05T01:00:20.327Z,101189.40
2023-05-05T01:05:26.105Z,101181.80
2023-05-05T01:11:21.313Z,101175.40
2023-05-05T01:16:31.258Z,101180.80
2023-05-05T01:21:47.414Z,101178.80
2023-05-05T01:27:32.332Z,101176.40
2023-05-05T01:39:43.860Z,101180.00
2023-05-05T01:44:49.654Z,101174.80
2023-05-05T01:49:53.787Z,101173.20
2023-05-05T01:54:59.640Z,101172.80
2023-05-05T02:00:05.008Z,101173.00
2023-05-05T02:05:10.264Z,101175.20
2023-05-05T02:11:05.301Z,101172.80
2023-05-05T02:16:10.693Z,101170.80
2023-05-05T02:21:18.280Z,101171.80
2023-05-05T02:26:24.577Z,101173.20
2023-05-05T02:31:38.663Z,101166.60
2023-05-05T02:36:45.425Z,101170.20
2023-05-05T02:41:52.467Z,101170.60
2023-05-05T02:46:58.027Z,101176.40
2023-05-05T02:52:01.749Z,101178.40
2023-05-05T02:57:05.287Z,101182.40
2023-05-05T03:16:09.542Z,101182.40
2023-05-05T03:21:14.578Z,101187.60
2023-05-05T03:26:44.664Z,101196.60
2023-05-05T03:31:49.056Z,101206.00
2023-05-05T03:36:55.701Z,101203.60
2023-05-05T03:42:51.249Z,101205.80
2023-05-05T03:47:54.994Z,101215.20
2023-05-05T03:52:58.507Z,101218.80
2023-05-05T03:58:02.855Z,101218.60
2023-05-05T04:03:07.114Z,101224.60
2023-05-05T04:08:11.150Z,101231.00
2023-05-05T04:13:15.158Z,101231.40
2023-05-05T04:18:19.141Z,101238.80
2023-05-05T04:31:52.584Z,101244.60
2023-05-05T04:36:56.141Z,101248.80
2023-05-05T04:42:50.047Z,101247.80
2023-05-05T04:47:54.130Z,101247.60
2023-05-05T05:00:04.923Z,101258.60
2023-05-05T05:05:13.300Z,101262.00
2023-05-05T05:11:51.289Z,101267.00
2023-05-05T05:16:55.409Z,101279.40
2023-05-05T05:21:58.854Z,101282.40
2023-05-05T05:27:09.976Z,101281.20
2023-05-05T05:32:15.834Z,101282.20
2023-05-05T05:37:19.470Z,101283.20
2023-05-05T05:42:23.270Z,101286.60
2023-05-05T05:47:27.138Z,101293.80
2023-05-05T05:52:31.259Z,101292.60
2023-05-05T05:57:35.766Z,101297.00
2023-05-05T06:02:39.682Z,101307.40
2023-05-05T06:08:34.275Z,101306.80
2023-05-05T06:13:37.920Z,101307.60
2023-05-05T06:18:44.166Z,101297.60
2023-05-05T06:23:47.940Z,101305.80
2023-05-05T06:28:51.490Z,101309.00
2023-05-05T06:33:55.450Z,101308.60
2023-05-05T06:38:59.802Z,101313.20
2023-05-05T06:44:05.596Z,101318.20
2023-05-05T06:49:10.182Z,101317.60
2023-05-05T06:54:14.716Z,101315.00
2023-05-05T06:59:18.741Z,101320.20
2023-05-05T07:04:23.364Z,101322.60
2023-05-05T07:09:27.447Z,101314.80
2023-05-05T07:14:31.031Z,101317.60
2023-05-05T07:19:36.754Z,101318.00
2023-05-05T07:24:41.325Z,101316.60
2023-05-05T07:29:48.223Z,101320.80
2023-05-05T07:34:52.579Z,101328.20
2023-05-05T07:39:58.190Z,101331.00
2023-05-05T07:45:04.925Z,101338.00
2023-05-05T07:50:10.623Z,101335.40
2023-05-05T07:55:14.531Z,101336.80
2023-05-05T08:00:19.753Z,101340.80
2023-05-05T08:05:23.528Z,101343.40
2023-05-05T08:10:28.093Z,101350.40
2023-05-05T08:15:31.670Z,101343.40
2023-05-05T08:20:35.467Z,101345.80
2023-05-05T08:25:39.020Z,101348.80
2023-05-05T08:30:43.166Z,101350.80
2023-05-05T08:35:48.411Z,101354.60
2023-05-05T08:40:53.000Z,101354.80
2023-05-05T08:45:59.248Z,101350.80
2023-05-05T08:51:08.278Z,101346.20
2023-05-05T08:56:13.695Z,101357.40
2023-05-05T09:01:18.571Z,101352.80
2023-05-05T09:06:23.724Z,101358.60
2023-05-05T09:11:28.408Z,101368.40
2023-05-05T09:16:32.231Z,101364.40
2023-05-05T09:21:46.660Z,101374.00
2023-05-05T09:26:50.643Z,101372.60
2023-05-05T09:32:05.842Z,101369.60
2023-05-05T09:37:10.911Z,101377.60
2023-05-05T09:42:21.252Z,101372.40
2023-05-05T09:47:37.884Z,101366.40
2023-05-05T09:53:03.944Z,101371.60
2023-05-05T09:58:28.594Z,101370.40
2023-05-05T10:03:32.480Z,101382.20
2023-05-05T10:08:36.109Z,101379.60
2023-05-05T10:13:43.959Z,101380.80
2023-05-05T10:18:48.885Z,101397.60
2023-05-05T10:24:11.964Z,101373.00
2023-05-05T10:29:31.783Z,101387.00
2023-05-05T10:34:59.657Z,101383.60
2023-05-05T10:40:04.604Z,101388.00
2023-05-05T10:45:11.094Z,101374.80
2023-05-05T10:50:45.049Z,101392.20
2023-05-05T10:56:13.829Z,101368.80
2023-05-05T11:01:34.036Z,101387.20
2023-05-05T11:06:37.663Z,101378.40
2023-05-05T11:12:06.896Z,101367.00
2023-05-05T11:17:49.223Z,101360.80
2023-05-05T11:23:15.228Z,101377.60
2023-05-05T11:28:31.662Z,101359.40
2023-05-05T11:33:39.691Z,101358.40
2023-05-05T11:39:10.463Z,101359.00
2023-05-05T11:44:30.984Z,101348.80
2023-05-05T11:49:40.584Z,101345.00
2023-05-05T11:54:48.913Z,101341.20
2023-05-05T12:00:41.029Z,101351.40
2023-05-05T12:05:50.472Z,101350.00
2023-05-05T12:11:27.018Z,101348.20
2023-05-05T12:16:31.814Z,101345.00
2023-05-05T12:21:36.253Z,101355.20
2023-05-05T12:45:21.421Z,101338.40
2023-05-05T12:50:50.475Z,101334.60
2023-05-05T12:56:44.654Z,101332.40
2023-05-05T13:02:39.520Z,101339.20
2023-05-05T13:21:59.882Z,101328.20
2023-05-05T13:27:05.068Z,101319.80
2023-05-05T13:39:36.409Z,101311.80
2023-05-05T13:46:16.129Z,101311.80
2023-05-05T13:51:22.875Z,101318.00
2023-05-05T13:57:05.366Z,101306.60
2023-05-05T14:03:25.299Z,101308.60
2023-05-05T14:08:54.808Z,101300.20
2023-05-05T14:14:35.702Z,101304.00
2023-05-05T14:20:29.657Z,101298.40
2023-05-05T14:25:45.606Z,101291.80
2023-05-05T14:30:52.709Z,101292.80
2023-05-05T14:37:24.794Z,101296.40
2023-05-05T14:42:29.253Z,101302.60
2023-05-05T14:47:34.962Z,101303.60
2023-05-05T14:52:40.538Z,101301.80
2023-05-05T14:57:47.490Z,101299.80
2023-05-05T15:02:51.232Z,101299.20
2023-05-05T15:07:55.146Z,101297.00
2023-05-05T15:12:59.236Z,101302.60
2023-05-05T15:18:03.164Z,101299.20
2023-05-05T15:37:29.437Z,101292.20
2023-05-05T15:42:34.207Z,101290.40
2023-05-05T15:48:02.758Z,101303.80
2023-05-05T15:53:28.449Z,101302.60
2023-05-05T16:07:23.128Z,101300.40
2023-05-05T16:12:26.965Z,101295.20
2023-05-05T16:17:48.366Z,101296.60
2023-05-05T16:23:24.482Z,101294.20
2023-05-05T16:28:53.148Z,101284.00
2023-05-05T16:49:15.259Z,101290.60
2023-05-05T16:55:41.547Z,101287.40
2023-05-05T17:00:58.447Z,101293.20
2023-05-05T17:13:24.675Z,101302.00
2023-05-05T17:18:54.085Z,101302.80
2023-05-05T17:23:59.474Z,101306.40
2023-05-05T17:29:03.174Z,101307.20
2023-05-05T17:34:07.189Z,101311.40
2023-05-05T17:39:14.176Z,101308.40
2023-05-05T17:44:18.867Z,101313.00
2023-05-05T17:49:25.499Z,101310.60
2023-05-05T17:54:30.587Z,101313.80
2023-05-05T17:59:36.078Z,101316.80
2023-05-05T18:04:39.681Z,101324.00
2023-05-05T18:09:43.411Z,101327.60
2023-05-05T18:22:58.041Z,101333.20
2023-05-05T18:28:07.811Z,101339.00
2023-05-05T18:57:54.749Z,101365.20
2023-05-05T19:03:23.959Z,101364.20
2023-05-05T19:08:27.919Z,101366.60
2023-05-05T19:14:23.321Z,101370.60
2023-05-05T19:19:27.655Z,101371.60
2023-05-05T19:25:21.843Z,101367.80
2023-05-05T19:30:29.078Z,101366.40
2023-05-05T19:35:58.198Z,101363.60
2023-05-05T19:41:08.203Z,101358.20
2023-05-05T19:46:37.299Z,101357.00
2023-05-05T19:51:42.288Z,101363.80
2023-05-05T19:57:11.031Z,101367.20
2023-05-05T20:02:17.656Z,101368.20
2023-05-05T20:07:21.649Z,101371.60
2023-05-05T20:12:25.723Z,101366.40
2023-05-05T20:17:29.632Z,101370.40
2023-05-05T20:22:33.536Z,101372.20
2023-05-05T20:27:39.610Z,101366.80
2023-05-05T20:32:43.673Z,101363.80
2023-05-05T20:37:47.476Z,101364.00
2023-05-05T20:42:52.779Z,101373.00
2023-05-05T20:47:58.794Z,101373.80
2023-05-05T20:53:03.577Z,101367.20
2023-05-05T20:58:07.821Z,101369.20
2023-05-05T21:03:12.260Z,101372.60
2023-05-05T21:08:16.927Z,101367.20
2023-05-05T21:13:20.779Z,101371.20
2023-05-05T21:18:28.643Z,101376.20
2023-05-05T21:23:32.413Z,101373.00
2023-05-05T21:28:36.512Z,101367.80
2023-05-05T21:33:40.725Z,101365.00
2023-05-05T21:38:46.705Z,101364.40
2023-05-05T21:43:50.627Z,101365.60
2023-05-05T21:48:54.658Z,101366.60
2023-05-05T21:53:59.616Z,101364.00
2023-05-05T21:59:05.591Z,101367.40
2023-05-05T22:04:09.887Z,101363.80
2023-05-05T22:09:14.767Z,101359.00
2023-05-05T22:14:19.738Z,101369.60
2023-05-05T22:19:23.762Z,101362.00
2023-05-05T22:24:27.685Z,101360.40
2023-05-05T22:29:32.691Z,101356.20
2023-05-05T22:34:37.716Z,101362.20
2023-05-05T22:39:42.846Z,101359.20
2023-05-05T22:44:46.789Z,101356.40
2023-05-05T22:49:51.770Z,101356.80
2023-05-05T22:54:56.504Z,101355.00
2023-05-05T23:00:00.636Z,101349.40
2023-05-05T23:05:05.654Z,101356.40
2023-05-05T23:10:10.029Z,101356.20
2023-05-05T23:15:14.764Z,101356.00
2023-05-05T23:20:18.801Z,101354.40
2023-05-05T23:25:22.661Z,101349.20
2023-05-05T23:30:26.661Z,101345.20
2023-05-05T23:35:30.780Z,101340.00
2023-05-05T23:40:35.913Z,101330.60
2023-05-05T23:45:39.471Z,101330.00
2023-05-05T23:50:43.695Z,101334.00
2023-05-05T23:55:48.864Z,101339.80
